ADDS METAR Data INFO
IDs: Format: Raw Decoded Include TAF

Data at: 1208 UTC 21 Jun 2018

KNUQ 211156Z AUTO 03005KT 10SM OVC012 13/11 A3002 RMK AO2 SLP167 T01330111 10139 20122 55000
KNUQ 211105Z AUTO 02005KT 10SM BKN012 13/11 A3001 RMK AO2 T01280111
KNUQ 211056Z AUTO 02007KT 10SM SCT012 13/11 A3001 RMK AO2 SLP165 T01280111
KNUQ 210956Z AUTO 05003KT 10SM FEW012 13/11 A3002 RMK AO2 SLP166 T01280111
KNUQ 210856Z AUTO 02005KT 10SM CLR 13/11 A3002 RMK AO2 SLP167 T01280106 56004
KNUQ 210756Z AUTO 03006KT 10SM CLR 13/11 A3002 RMK AO2 SLP169 T01330111 402000128
KNUQ 210656Z AUTO 03008KT 10SM CLR 14/11 A3002 RMK AO2 SLP169 T01390111
KNUQ 210556Z 03005KT 10SM CLR 14/11 A3003 RMK AO2 SLP172 T01390111 10194 20139 51005
KNUQ 210456Z 04008KT 10SM CLR 14/12 A3003 RMK AO2 SLP170 T01440117
KNUQ 210356Z 02007KT 10SM CLR 15/12 A3002 RMK AO2 SLP168 T01500122
KNUQ 210256Z 35012KT 10SM CLR 17/12 A3002 RMK AO2 SLP166 T01670122 53004
KNUQ 210156Z 36015KT 10SM CLR 18/12 A3000 RMK AO2 SLP163 T01780122
KNUQ 210056Z 34014KT 10SM CLR 18/12 A3000 RMK AO2 SLP162 T01830122
KNUQ 202356Z 35016KT 10SM CLR 19/12 A3000 RMK AO2 SLP163 T01940122 10200 20172 58009
KNUQ 202256Z 33015KT 10SM CLR 19/12 A3002 RMK AO2 SLP166 T01940117
KNUQ 202156Z 34012G18KT 10SM CLR 19/12 A3003 RMK AO2 SLP170 T01940122
KNUQ 202056Z 34013KT 10SM CLR 19/12 A3003 RMK AO2 SLP172 T01890122 56007
KNUQ 201956Z 35011KT 10SM CLR 19/12 A3004 RMK AO2 SLP174 T01890122
KNUQ 201856Z 36008KT 10SM CLR 18/12 A3004 RMK AO2 SLP175 T01780117
KNUQ 201756Z 36009KT 10SM FEW015 17/11 A3005 RMK AO2 SLP178 T01720111 10172 20128 51006
KNUQ 201656Z 01007KT 10SM CLR 17/11 A3005 RMK AO2 SLP178 T01670111
KNUQ 201617Z 01003KT 10SM SCT014 16/11 A3004 RMK AO2 T01560111
KNUQ 201556Z 00000KT 10SM OVC014 15/11 A3004 RMK AO2 SLP176 T01500111
KNUQ 201456Z 06003KT 10SM OVC013 14/11 A3003 RMK AO2 SLP172 T01440111 51003
KNUQ 201356Z 00000KT 10SM OVC012 13/11 A3003 RMK AO2 SLP173 T01330106
KNUQ 201256Z 00000KT 10SM OVC013 13/10 A3003 RMK AO2 SLP171 T01330100
KNUQ 201156Z 33006KT 10SM OVC014 13/11 A3003 RMK AO2 SLP170 T01280106 10144 20128 53005
KNUQ 201056Z 32007KT 10SM OVC012 13/11 A3002 RMK AO2 SLP167 T01330106
KNUQ 200956Z 32003KT 10SM OVC010 14/12 A3001 RMK AO2 SLP165 T01390117
KNUQ 200856Z 01007KT 10SM BKN013 14/12 A3001 RMK AO2 SLP165 T01390117 56010
KNUQ 200843Z 02006KT 10SM BKN013 14/12 A3001 RMK AO2 T01390117
KNUQ 200756Z 01005KT 10SM CLR 14/12 A3002 RMK AO2 SLP167 T01390117 402110139
KNUQ 200656Z 36007KT 10SM CLR 14/12 A3003 RMK AO2 SLP172 T01440117
KNUQ 200556Z 01007KT 10SM SCT012 14/12 A3004 RMK AO2 SLP174 T01440122 10200 20144 50005
KNUQ 200456Z 02007KT 10SM CLR 15/12 A3005 RMK AO2 SLP176 T01500122
KNUQ 200356Z 36010KT 10SM CLR 16/13 A3003 RMK AO2 SLP172 T01610128
KNUQ 200256Z 35012KT 10SM CLR 17/13 A3003 RMK AO2 SLP170 T01670128 53007
KNUQ 200156Z 34014G18KT 10SM CLR 18/13 A3001 RMK AO2 SLP165 T01780128
KNUQ 200056Z 34013G18KT 10SM CLR 19/13 A3000 RMK AO2 SLP163 T01890128